Rechercher aéroport 
image banner adimage banner adimage banner ad
image banner ad

10PN - One Meridian Plaza

Situé à Philadelphia, United States

ICAO - 10PN, IATA -

Données fournies par Airmate  

Information générale

Coordonnées: N39°55'50" W75°14'39"
Élévation : 560 feet MSL.
Variation magnétique : -11° East
Voir autres Aéroports à Pennsylvania

Données opérationnelles

Special qualification required
Heure actuelle UTC:
Heure actuelle locale:
Météo à : KPHL - Philadelphia Intl ( 7 km )
METAR: KPHL 291454Z 12006KT 10SM BKN012 OVC043 24/22 A2998 RMK AO2 SLP152 T02390217 58013
TAF: KPHL 291501Z 2915/3018 15006KT P6SM VCSH SCT012 BKN040 TEMPO 2915/2916 BKN012 FM291700 19008KT P6SM OVC050 FM291930 19010KT P6SM -SHRA VCTS BKN045CB TEMPO 2922/3002 VRB10G30KT 2SM TSRA OVC050CB FM300400 25008KT P6SM BKN020 FM301400 32010G18KT P6SM SCT250
Voir NOTAMs / SUP AIP / TFR affectant cet aéroport [VIEW]
Fréquences de communication: [VIEW]

Pistes:

Coordonnées de l'aéroport

Adresse: Philadelphia United States

Vue satellite de 10PN